Terminal Aerodrome Forecast
Issued by NWS Tampa Bay Area, FL

Home | Current Version | Previous Version | Text Only | Print | Product List | Glossary On
Versions: 1 2 3 4 5 6 7 8 9 10 11 12
000
FTUS42 KTBW 281700
TAFSRQ
TAF
KSRQ 281740Z 2818/2918 27013KT P6SM SCT035
     FM290000 26011KT P6SM SCT025
     FM290600 25011KT P6SM VCSH SCT025
     FM291500 27012KT P6SM VCTS SCT025CB BKN040=

USA.gov is the U.S. government's official web portal to all federal, state and local government web resources and services.